Time;durP1;ratioP1;P1;durP2;ratioP2;P2;SDS_P1;SDS_P2;PMS_P1;PMS_P2;Temp;Humidity;BMP_temperature;BMP_pressure;BME280_temperature;BME280_humidity;BME280_pressure;Samples;Min_cycle;Max_cycle;Signal;HPM_P1;HPM_P2
2022/01/30 00:01:42;;;;;;;;;7.00;4.25;;;;;11.54;85.58;102971.25;5056350;28;46156;-69
2022/01/30 00:04:07;;;;;;;;;4.25;3.00;;;;;11.57;85.58;102965.94;5055503;28;45463;-69
2022/01/30 00:06:32;;;;;;;;;4.25;4.25;;;;;11.50;85.26;102957.25;5056233;28;45331;-69
2022/01/30 00:08:58;;;;;;;;;5.00;4.00;;;;;11.49;85.51;102968.69;5056262;28;45872;-69
2022/01/30 00:11:28;;;;;;;;;8.00;4.75;;;;;11.48;85.59;102972.19;5055948;28;46186;-69
2022/01/30 00:13:54;;;;;;;;;7.00;3.00;;;;;11.47;85.99;102967.81;5056068;28;45801;-69
2022/01/30 00:16:22;;;;;;;;;4.00;3.00;;;;;11.50;85.67;102954.63;5056807;28;45517;-69
2022/01/30 00:19:05;;;;;;;;;6.75;6.50;;;;;11.54;85.61;102964.25;5055385;28;45467;-69
2022/01/30 00:21:39;;;;;;;;;6.75;3.00;;;;;11.52;85.49;102966.00;5054035;28;46584;-69
2022/01/30 00:26:35;;;;;;;;;4.75;3.50;;;;;11.55;85.33;102975.66;5055979;28;45478;-70
2022/01/30 00:29:01;;;;;;;;;6.75;3.75;;;;;11.55;85.65;102971.25;5056063;28;45575;-69
2022/01/30 00:31:27;;;;;;;;;6.00;4.25;;;;;11.55;85.58;102976.50;5056319;28;46421;-69
2022/01/30 00:33:53;;;;;;;;;9.00;4.50;;;;;11.58;85.38;102968.56;5055377;28;45402;-69
2022/01/30 00:36:19;;;;;;;;;4.75;3.00;;;;;11.59;85.65;102951.91;5055546;28;45549;-69
2022/01/30 00:38:44;;;;;;;;;4.00;4.00;;;;;11.60;85.59;102958.91;5055160;28;45605;-69
2022/01/30 00:41:09;;;;;;;;;4.00;3.00;;;;;11.55;85.35;102951.94;5055439;28;45522;-69
2022/01/30 00:43:35;;;;;;;;;5.00;5.00;;;;;11.52;85.41;102950.19;5055711;28;45490;-69
2022/01/30 00:46:00;;;;;;;;;5.00;5.00;;;;;11.49;85.84;102951.13;5056073;28;45632;-69
2022/01/30 00:48:26;;;;;;;;;8.25;4.75;;;;;11.41;85.90;102937.16;5054633;28;45288;-69
2022/01/30 00:50:51;;;;;;;;;6.00;6.00;;;;;11.51;85.58;102953.72;5055756;28;46393;-69
2022/01/30 00:53:16;;;;;;;;;5.00;3.00;;;;;11.47;85.97;102944.13;5055998;28;45307;-69
2022/01/30 00:55:42;;;;;;;;;6.25;6.25;;;;;11.48;85.72;102943.22;5073871;27;45484;-69
2022/01/30 00:58:07;;;;;;;;;5.00;5.00;;;;;11.55;86.24;102951.94;5063181;27;45457;-69
2022/01/30 01:00:33;;;;;;;;;4.25;3.00;;;;;11.56;85.83;102935.25;5054152;28;46638;-69
2022/01/30 01:03:00;;;;;;;;;7.75;4.00;;;;;11.60;85.87;102937.84;5055654;28;45347;-69
2022/01/30 01:05:25;;;;;;;;;7.00;4.25;;;;;11.58;85.97;102929.06;5055858;28;45322;-69
2022/01/30 01:07:53;;;;;;;;;5.00;2.75;;;;;11.59;85.61;102933.47;5056112;28;45349;-69
2022/01/30 01:23:55;;;;;;;;;8.75;4.75;;;;;11.54;85.55;102911.56;5055432;28;45355;-69
2022/01/30 01:26:23;;;;;;;;;7.25;4.00;;;;;11.42;85.39;102902.03;5054914;28;45459;-69
2022/01/30 01:28:49;;;;;;;;;5.25;4.50;;;;;11.48;85.41;102922.16;5055884;28;45447;-69
2022/01/30 01:31:15;;;;;;;;;4.50;4.50;;;;;11.45;85.76;102924.84;5055503;28;46671;-69
2022/01/30 01:36:22;;;;;;;;;4.00;2.00;;;;;11.36;85.69;102917.91;5056891;28;45237;-69
2022/01/30 01:38:48;;;;;;;;;7.50;4.50;;;;;11.35;85.56;102921.44;5055113;28;45317;-69
2022/01/30 01:41:17;;;;;;;;;6.50;6.00;;;;;11.32;85.44;102915.31;5054914;28;45554;-69
2022/01/30 01:43:43;;;;;;;;;2.75;0.75;;;;;11.32;85.54;102926.72;5055825;28;45763;-69
2022/01/30 01:46:15;;;;;;;;;5.50;4.25;;;;;11.29;85.96;102915.38;5055498;28;45325;-69
2022/01/30 01:48:42;;;;;;;;;6.75;5.25;;;;;11.32;85.96;102932.00;5050506;28;45404;-69
2022/01/30 01:51:15;;;;;;;;;5.25;4.00;;;;;11.35;85.82;102933.72;5055101;28;45670;-69
2022/01/30 01:53:41;;;;;;;;;3.50;3.25;;;;;11.38;85.71;102928.41;5054841;28;45909;-69
2022/01/30 01:56:07;;;;;;;;;8.50;6.50;;;;;11.40;85.94;102924.03;5055156;28;45363;-69
2022/01/30 01:58:32;;;;;;;;;12.75;11.25;;;;;11.42;85.88;102912.56;5055348;28;45499;-69
2022/01/30 02:01:00;;;;;;;;;8.75;8.75;;;;;11.45;85.86;102923.06;5055107;28;53870;-69
2022/01/30 02:03:27;;;;;;;;;7.75;7.75;;;;;11.49;85.66;102931.81;5054087;28;45925;-69
2022/01/30 02:05:57;;;;;;;;;12.00;10.00;;;;;11.52;85.57;102931.75;5055208;28;45783;-69
2022/01/30 02:11:03;;;;;;;;;10.00;8.25;;;;;11.55;85.63;102923.84;5045100;28;45977;-69
2022/01/30 02:24:33;;;;;;;;;7.00;7.00;;;;;11.59;85.18;102919.38;5058618;28;45490;-69
2022/01/30 02:26:59;;;;;;;;;7.50;5.25;;;;;11.60;85.40;102908.00;5058309;28;45627;-69
2022/01/30 02:29:24;;;;;;;;;5.00;4.75;;;;;11.61;84.95;102904.47;5058526;28;45568;-69
2022/01/30 02:31:50;;;;;;;;;8.75;7.00;;;;;11.60;85.06;102908.84;5058059;28;46509;-68
2022/01/30 02:34:15;;;;;;;;;8.00;8.00;;;;;11.62;85.17;102914.97;5058422;28;45340;-69
2022/01/30 02:36:50;;;;;;;;;7.25;7.00;;;;;11.62;84.87;102909.69;5057487;28;45468;-69
2022/01/30 02:39:17;;;;;;;;;8.00;8.00;;;;;11.61;84.91;102901.81;5057701;28;45447;-69
2022/01/30 02:41:43;;;;;;;;;8.25;7.50;;;;;11.64;85.29;102901.78;5058061;28;45555;-69
2022/01/30 02:44:23;;;;;;;;;10.25;9.00;;;;;11.65;85.17;102907.03;5057695;28;45456;-69
2022/01/30 02:46:52;;;;;;;;;5.75;5.00;;;;;11.64;84.81;102897.41;5057670;28;45559;-69
2022/01/30 02:51:53;;;;;;;;;8.00;7.00;;;;;11.65;85.21;102916.72;5056589;28;46378;-69
2022/01/30 02:54:20;;;;;;;;;15.50;9.75;;;;;11.64;85.12;102907.03;5059035;28;45730;-69
2022/01/30 02:56:46;;;;;;;;;9.75;8.00;;;;;11.67;84.85;102914.91;5057984;28;45485;-69
2022/01/30 02:59:12;;;;;;;;;13.75;11.00;;;;;11.66;84.63;102916.69;5057802;28;45366;-69
2022/01/30 03:01:38;;;;;;;;;13.25;9.75;;;;;11.64;84.90;102910.56;5058042;28;46377;-68
2022/01/30 03:04:04;;;;;;;;;10.50;10.00;;;;;11.65;84.77;102914.06;5057424;28;45958;-68
2022/01/30 03:06:30;;;;;;;;;9.50;8.75;;;;;11.66;84.85;102906.16;5056145;28;45497;-69
2022/01/30 03:08:56;;;;;;;;;10.75;9.00;;;;;11.66;84.81;102910.53;5057662;28;45530;-69
2022/01/30 03:11:21;;;;;;;;;10.00;7.00;;;;;11.66;84.32;102915.81;5073345;27;47459;-69
2022/01/30 03:13:47;;;;;;;;;10.50;9.00;;;;;11.66;84.49;102916.69;5057663;28;45590;-69
2022/01/30 03:16:13;;;;;;;;;11.00;9.75;;;;;11.66;84.58;102921.94;5057908;28;45424;-69
2022/01/30 03:18:38;;;;;;;;;13.50;7.50;;;;;11.62;84.45;102914.09;5056665;28;45416;-69
2022/01/30 03:21:04;;;;;;;;;14.00;10.00;;;;;11.64;84.25;102917.56;5057171;28;47759;-69
2022/01/30 03:23:29;;;;;;;;;12.00;9.25;;;;;11.59;84.13;102911.50;5056830;28;45337;-69
2022/01/30 03:25:58;;;;;;;;;17.50;13.75;;;;;11.58;83.87;102917.66;5057702;28;45383;-69
2022/01/30 03:28:25;;;;;;;;;11.00;9.25;;;;;11.59;83.97;102925.56;5057746;28;45595;-69
2022/01/30 03:30:55;;;;;;;;;10.00;9.75;;;;;11.56;84.02;102924.72;5056155;28;45685;-68
2022/01/30 03:33:21;;;;;;;;;8.00;3.00;;;;;11.55;84.16;102920.34;5056538;27;45493;-69
2022/01/30 03:35:46;;;;;;;;;19.00;11.00;;;;;11.50;84.13;102929.16;5056297;28;45406;-69
2022/01/30 03:38:12;;;;;;;;;8.25;8.25;;;;;11.47;83.89;102920.41;5057200;28;45458;-69
2022/01/30 03:40:37;;;;;;;;;10.25;7.75;;;;;11.44;84.06;102925.75;5057415;28;45471;-69
2022/01/30 03:43:03;;;;;;;;;14.25;10.00;;;;;11.45;83.97;102933.59;5056774;28;45495;-69
2022/01/30 03:45:29;;;;;;;;;9.00;8.25;;;;;11.39;84.23;102920.53;5056417;28;45363;-69
2022/01/30 03:47:56;;;;;;;;;9.25;7.25;;;;;11.39;83.27;102909.13;5072634;27;45498;-69
2022/01/30 03:50:22;;;;;;;;;10.25;7.00;;;;;11.39;83.33;102927.56;5056351;28;46348;-69
2022/01/30 03:52:48;;;;;;;;;8.50;8.50;;;;;11.36;82.55;102920.53;5056060;28;45924;-69
2022/01/30 03:55:13;;;;;;;;;6.75;3.50;;;;;11.32;80.99;102917.97;5057337;28;45490;-69
2022/01/30 03:57:39;;;;;;;;;4.00;2.00;;;;;11.27;79.08;102925.03;5051839;28;45395;-69
2022/01/30 04:00:06;;;;;;;;;5.25;2.50;;;;;11.21;78.89;102918.94;5056630;28;46472;-69
2022/01/30 04:02:31;;;;;;;;;2.00;2.00;;;;;11.15;77.27;102920.78;5057169;28;45789;-69
2022/01/30 04:04:56;;;;;;;;;3.75;1.25;;;;;11.10;77.47;102926.09;5055946;28;45401;-69
2022/01/30 04:07:23;;;;;;;;;2.50;0.75;;;;;11.02;75.36;102927.94;5056880;28;45402;-69
2022/01/30 04:09:49;;;;;;;;;4.00;1.00;;;;;11.01;74.85;102934.06;5056186;28;45367;-68
2022/01/30 04:12:14;;;;;;;;;2.00;1.00;;;;;10.97;74.03;102927.09;5056657;28;45398;-68
2022/01/30 04:14:40;;;;;;;;;2.25;1.75;;;;;10.91;74.03;102927.16;5056679;28;45348;-69
2022/01/30 04:17:08;;;;;;;;;3.75;1.00;;;;;10.90;74.09;102938.56;5056635;28;45234;-69
2022/01/30 04:19:33;;;;;;;;;2.75;2.50;;;;;10.84;73.72;102936.84;5056465;28;45316;-69
2022/01/30 04:21:59;;;;;;;;;2.00;2.00;;;;;10.83;73.71;102939.50;5056555;28;45442;-69
2022/01/30 04:24:24;;;;;;;;;2.00;1.00;;;;;10.81;73.59;102930.78;5055777;28;45335;-69
2022/01/30 04:26:49;;;;;;;;;4.50;1.75;;;;;10.78;73.47;102944.81;5056471;28;45441;-68
2022/01/30 04:29:15;;;;;;;;;4.50;2.00;;;;;10.71;73.34;102936.09;5056238;28;45338;-69
2022/01/30 04:31:42;;;;;;;;;3.25;1.00;;;;;10.69;72.97;102940.47;5056730;28;45316;-69
2022/01/30 04:34:09;;;;;;;;;2.00;2.00;;;;;10.64;72.68;102944.03;5054876;28;45481;-69
2022/01/30 04:36:40;;;;;;;;;1.25;1.25;;;;;10.60;72.89;102945.84;5055685;28;45478;-69
2022/01/30 04:39:30;;;;;;;;;3.50;3.00;;;;;10.55;72.53;102938.88;5056194;28;46171;-69
2022/01/30 04:53:08;;;;;;;;;2.00;2.00;;;;;10.29;72.64;102949.56;5056464;28;45446;-69
2022/01/30 05:08:20;;;;;;;;;4.00;3.50;;;;;10.16;72.67;102951.34;5056294;28;45512;-69
2022/01/30 05:10:45;;;;;;;;;2.00;1.00;;;;;10.10;73.11;102944.38;5055630;28;45723;-69
2022/01/30 05:13:16;;;;;;;;;3.25;0.75;;;;;10.09;72.80;102963.66;5055792;28;45839;-69
2022/01/30 05:15:43;;;;;;;;;3.00;1.75;;;;;10.09;73.49;102963.66;5051017;28;45371;-69
2022/01/30 05:18:09;;;;;;;;;3.50;1.50;;;;;10.02;72.82;102955.78;5055401;28;45493;-69
2022/01/30 05:20:35;;;;;;;;;3.25;1.75;;;;;10.03;72.72;102974.19;5056008;28;46424;-69
2022/01/30 05:23:01;;;;;;;;;3.00;2.00;;;;;10.01;73.21;102972.44;5055775;28;45902;-69
2022/01/30 05:25:26;;;;;;;;;2.75;1.00;;;;;9.98;72.33;102969.84;5055626;28;45466;-69
2022/01/30 05:27:52;;;;;;;;;3.50;2.00;;;;;9.97;72.11;102975.97;5054805;28;45500;-69
2022/01/30 05:30:17;;;;;;;;;1.50;1.00;;;;;9.92;72.36;102973.38;5055280;27;46426;-69
2022/01/30 05:32:43;;;;;;;;;2.75;1.00;;;;;9.95;72.15;102986.47;5054607;28;45390;-69
2022/01/30 05:35:09;;;;;;;;;2.75;2.25;;;;;9.95;72.32;102983.84;5056074;28;45363;-69
2022/01/30 05:37:37;;;;;;;;;3.00;1.00;;;;;9.92;72.02;102984.75;5055539;28;45489;-69
2022/01/30 05:40:04;;;;;;;;;1.00;0.00;;;;;9.98;71.74;102999.63;5055383;28;47324;-69
2022/01/30 05:42:29;;;;;;;;;1.75;1.00;;;;;9.99;71.76;102992.59;5070270;28;45719;-69
2022/01/30 05:45:13;;;;;;;;;3.50;1.25;;;;;10.02;71.51;102993.44;5055694;28;45419;-69
2022/01/30 05:47:48;;;;;;;;;3.00;1.00;;;;;10.04;71.16;103002.22;5058488;28;45577;-69
2022/01/30 05:50:14;;;;;;;;;3.00;2.00;;;;;10.06;71.63;102997.81;5058748;28;46292;-69
2022/01/30 05:52:40;;;;;;;;;1.75;0.00;;;;;10.06;71.44;102999.56;5058903;28;45265;-69
2022/01/30 05:55:05;;;;;;;;;2.50;1.00;;;;;9.99;71.67;102990.84;5059114;28;45793;-69
2022/01/30 05:57:31;;;;;;;;;3.75;2.00;;;;;10.03;71.41;102995.22;5058181;28;45359;-69
2022/01/30 05:59:56;;;;;;;;;4.00;3.00;;;;;10.04;71.02;103007.47;5058195;28;57043;-69
2022/01/30 06:02:21;;;;;;;;;4.00;2.00;;;;;9.94;71.03;102993.50;5057999;28;45395;-69
2022/01/30 06:04:47;;;;;;;;;2.50;1.75;;;;;9.83;71.44;102976.91;5058212;28;49589;-69
2022/01/30 06:07:13;;;;;;;;;2.75;1.00;;;;;9.91;71.43;102987.38;5058873;28;45387;-69
2022/01/30 06:09:38;;;;;;;;;1.00;1.00;;;;;9.84;71.06;102994.41;5057644;28;45588;-69
2022/01/30 06:12:05;;;;;;;;;2.25;1.00;;;;;9.81;71.11;102994.41;5058389;28;59020;-69
2022/01/30 06:14:30;;;;;;;;;4.00;1.00;;;;;9.79;71.23;102997.94;5057059;28;45399;-69
2022/01/30 06:16:55;;;;;;;;;1.25;1.25;;;;;9.76;70.83;103011.97;5058306;28;45416;-69
2022/01/30 06:19:22;;;;;;;;;3.00;2.00;;;;;9.74;70.57;103018.09;5058959;28;46338;-69
2022/01/30 06:21:50;;;;;;;;;2.50;2.00;;;;;9.72;70.95;103028.59;5057689;28;45822;-69
2022/01/30 06:24:16;;;;;;;;;1.50;1.50;;;;;9.64;70.59;103023.34;5058562;28;45422;-69
2022/01/30 06:26:42;;;;;;;;;5.50;2.00;;;;;9.64;70.74;103041.72;5058777;28;45384;-69
2022/01/30 06:29:07;;;;;;;;;2.00;2.00;;;;;9.58;70.68;103025.13;5056487;28;47224;-69
2022/01/30 06:31:32;;;;;;;;;4.25;2.00;;;;;9.52;70.80;103033.88;5058015;28;47056;-69
2022/01/30 06:33:58;;;;;;;;;2.75;2.00;;;;;9.47;70.93;103035.66;5058110;28;45397;-69
2022/01/30 06:36:24;;;;;;;;;1.00;1.00;;;;;9.43;71.14;103031.28;5055584;28;45514;-69
2022/01/30 06:38:51;;;;;;;;;4.25;1.75;;;;;9.34;71.58;103021.69;5058347;28;47303;-69
2022/01/30 06:41:17;;;;;;;;;3.00;2.00;;;;;9.33;71.39;103017.28;5058217;28;45733;-69
2022/01/30 06:43:42;;;;;;;;;7.00;2.00;;;;;9.28;70.97;103019.03;5057933;28;45901;-69
2022/01/30 06:46:10;;;;;;;;;2.50;1.00;;;;;9.24;71.12;103019.94;5058111;28;45608;-69
2022/01/30 06:48:36;;;;;;;;;3.25;3.00;;;;;9.17;70.80;103022.56;5057557;28;45669;-69
2022/01/30 06:51:01;;;;;;;;;1.50;1.00;;;;;9.12;71.04;103027.78;5057808;28;45349;-69
2022/01/30 06:53:26;;;;;;;;;6.00;3.00;;;;;9.06;71.46;103025.19;5057993;28;45356;-69
2022/01/30 06:55:51;;;;;;;;;2.25;1.00;;;;;8.98;71.57;103019.03;5058427;28;45477;-69
2022/01/30 06:58:17;;;;;;;;;1.25;1.25;;;;;8.95;71.70;103033.06;5056761;28;46474;-69
2022/01/30 07:00:42;;;;;;;;;1.50;1.25;;;;;8.92;71.99;103027.78;5056797;28;45438;-69
2022/01/30 07:03:08;;;;;;;;;5.75;2.25;;;;;8.89;72.27;103028.69;5073226;27;45590;-69
2022/01/30 07:05:33;;;;;;;;;2.50;2.00;;;;;8.88;72.37;103031.31;5057701;28;45507;-69
2022/01/30 07:07:58;;;;;;;;;2.00;2.00;;;;;8.85;72.47;103031.28;5057908;28;46238;-69
2022/01/30 07:10:24;;;;;;;;;9.50;3.00;;;;;8.83;72.88;103020.81;5056224;28;45453;-69
2022/01/30 07:12:50;;;;;;;;;3.25;2.75;;;;;8.80;73.05;103030.41;5056305;28;45500;-69
2022/01/30 07:15:15;;;;;;;;;5.00;3.00;;;;;8.74;73.30;103027.78;5057741;28;45399;-69
2022/01/30 07:17:42;;;;;;;;;2.25;2.00;;;;;8.71;73.39;103035.63;5057190;28;45626;-69
2022/01/30 07:20:08;;;;;;;;;3.75;2.25;;;;;8.69;73.68;103032.16;5057633;28;45477;-70
2022/01/30 07:22:34;;;;;;;;;1.00;1.00;;;;;8.68;73.27;103038.28;5057817;28;45394;-71
2022/01/30 07:24:59;;;;;;;;;4.25;2.00;;;;;8.59;73.47;103033.88;5057537;28;45425;-71
2022/01/30 07:27:25;;;;;;;;;1.75;1.00;;;;;8.56;73.39;103042.63;5054013;28;53749;-71
2022/01/30 07:29:50;;;;;;;;;4.75;1.75;;;;;8.54;73.63;103051.34;5056663;28;45510;-71
2022/01/30 07:32:16;;;;;;;;;6.00;2.00;;;;;8.49;73.79;103053.94;5055725;28;45474;-70
2022/01/30 07:34:42;;;;;;;;;4.00;2.25;;;;;8.48;74.08;103072.28;5057112;28;45551;-70
2022/01/30 07:37:09;;;;;;;;;5.25;2.00;;;;;8.44;74.13;103074.00;5048959;28;46675;-69
2022/01/30 07:39:36;;;;;;;;;5.00;2.00;;;;;8.35;74.50;103061.75;5052421;28;45795;-70
2022/01/30 07:42:02;;;;;;;;;3.25;3.25;;;;;8.43;74.45;103080.13;5049498;28;47482;-70
2022/01/30 07:44:28;;;;;;;;;3.00;2.75;;;;;8.35;74.63;103063.47;5066946;28;45384;-70
2022/01/30 07:46:53;;;;;;;;;5.75;1.75;;;;;8.41;74.87;103075.75;5051103;28;48367;-71
2022/01/30 07:49:18;;;;;;;;;5.25;1.50;;;;;8.46;74.67;103077.53;5051928;28;45608;-70
2022/01/30 07:51:44;;;;;;;;;6.00;2.00;;;;;8.56;74.73;103081.03;5053400;28;45494;-70
2022/01/30 07:54:09;;;;;;;;;3.00;2.00;;;;;8.58;74.85;103081.94;5050096;28;45360;-70
2022/01/30 07:56:34;;;;;;;;;2.50;2.00;;;;;8.70;75.01;103089.81;5050004;28;45642;-70
2022/01/30 07:58:59;;;;;;;;;3.75;2.00;;;;;8.75;74.89;103093.31;5052629;28;45560;-69
2022/01/30 08:01:25;;;;;;;;;3.00;2.00;;;;;8.79;74.45;103083.72;5049617;28;45606;-70
2022/01/30 08:03:50;;;;;;;;;4.00;2.25;;;;;8.88;74.77;103083.75;5052024;28;45363;-71
2022/01/30 08:06:15;;;;;;;;;3.00;3.00;;;;;8.94;74.54;103096.88;5054836;28;45352;-70
2022/01/30 08:08:41;;;;;;;;;1.50;1.50;;;;;9.00;74.67;103093.38;5049352;28;45883;-71
2022/01/30 08:11:10;;;;;;;;;5.50;4.25;;;;;9.10;74.39;103103.00;5047246;28;45779;-70
2022/01/30 08:13:35;;;;;;;;;7.50;4.25;;;;;9.18;74.65;103100.38;5052971;28;45502;-70
2022/01/30 08:16:01;;;;;;;;;2.50;1.75;;;;;9.28;74.51;103104.75;5053574;28;46714;-70
2022/01/30 08:18:26;;;;;;;;;5.25;3.00;;;;;9.38;74.41;103106.50;5048949;28;45439;-71
2022/01/30 08:20:54;;;;;;;;;4.75;2.75;;;;;9.48;74.33;103100.38;5055256;28;45638;-70
2022/01/30 08:23:19;;;;;;;;;5.50;5.50;;;;;9.61;74.25;103098.63;5047812;28;45450;-70
2022/01/30 08:25:45;;;;;;;;;5.50;2.50;;;;;9.72;73.92;103091.63;5062999;28;47319;-71
2022/01/30 08:28:10;;;;;;;;;8.75;4.50;;;;;9.96;73.73;103105.56;5052330;28;45359;-70
2022/01/30 08:30:36;;;;;;;;;8.75;4.00;;;;;10.16;73.51;103104.63;5056076;28;45602;-70
2022/01/30 08:33:02;;;;;;;;;6.75;4.00;;;;;10.37;72.57;103094.94;5054990;28;45486;-70
2022/01/30 08:35:28;;;;;;;;;6.50;3.25;;;;;10.64;72.71;103094.78;5053553;28;45672;-70
2022/01/30 08:37:54;;;;;;;;;7.50;4.25;;;;;10.88;71.51;103085.91;5047558;28;45355;-70
2022/01/30 08:40:20;;;;;;;;;8.25;6.25;;;;;11.18;71.40;103095.34;5050905;28;45466;-70
2022/01/30 08:42:47;;;;;;;;;2.00;2.00;;;;;11.54;71.29;103100.28;5051264;28;45415;-71
2022/01/30 08:45:15;;;;;;;;;8.00;3.25;;;;;11.84;70.45;103097.38;5054690;28;46382;-70
2022/01/30 08:47:43;;;;;;;;;8.00;6.00;;;;;12.14;69.69;103104.06;5055299;28;45847;-71
2022/01/30 08:50:09;;;;;;;;;9.25;6.50;;;;;13.04;69.87;103099.34;5052077;28;45455;-71
2022/01/30 08:52:35;;;;;;;;;10.00;3.00;;;;;14.67;69.02;103078.66;5050628;28;45541;-71
2022/01/30 08:55:03;;;;;;;;;8.25;5.25;;;;;15.78;65.52;103078.56;5057948;28;45466;-71
2022/01/30 08:57:28;;;;;;;;;8.75;4.25;;;;;17.27;63.98;103090.81;5053337;28;46152;-71
2022/01/30 08:59:54;;;;;;;;;7.25;4.00;;;;;18.72;62.14;103079.34;5051836;28;45433;-70
2022/01/30 09:02:19;;;;;;;;;4.25;3.75;;;;;20.09;59.45;103091.28;5054795;28;45455;-71
2022/01/30 09:04:45;;;;;;;;;6.00;3.00;;;;;21.35;57.69;103092.34;5064162;28;45914;-70
2022/01/30 09:07:10;;;;;;;;;7.00;3.00;;;;;22.57;54.96;103089.41;5054654;28;45462;-71
2022/01/30 09:09:36;;;;;;;;;7.25;5.00;;;;;23.68;53.47;103093.59;5062907;28;45451;-71
2022/01/30 09:12:03;;;;;;;;;9.75;4.25;;;;;24.64;52.53;103094.75;5064607;27;45608;-71
2022/01/30 09:14:29;;;;;;;;;9.25;5.00;;;;;25.33;50.89;103094.69;5051641;28;46574;-69
2022/01/30 09:16:55;;;;;;;;;4.25;3.00;;;;;25.75;47.72;103093.56;5055308;27;45653;-69
2022/01/30 09:19:20;;;;;;;;;7.50;3.00;;;;;26.32;45.96;103084.97;5051484;28;45326;-70
2022/01/30 09:21:46;;;;;;;;;4.75;3.75;;;;;26.94;45.49;103086.72;5069683;28;45467;-69
2022/01/30 09:24:13;;;;;;;;;6.00;5.00;;;;;27.30;44.21;103092.03;5053145;28;49250;-70
2022/01/30 09:26:39;;;;;;;;;5.50;4.00;;;;;27.63;43.37;103089.53;5051411;28;45323;-70
2022/01/30 09:29:04;;;;;;;;;3.75;3.00;;;;;28.13;42.33;103099.03;5052048;28;45291;-70
2022/01/30 09:31:29;;;;;;;;;3.50;3.00;;;;;28.59;41.29;103101.56;5051476;28;45371;-69
2022/01/30 09:33:55;;;;;;;;;4.00;3.25;;;;;29.11;40.91;103104.50;5053913;28;45582;-70
2022/01/30 09:36:20;;;;;;;;;4.00;4.00;;;;;29.58;39.91;103102.31;5052353;28;45443;-70
2022/01/30 09:38:45;;;;;;;;;84.00;70.75;;;;;29.34;37.79;103111.53;5050349;28;45540;-70
2022/01/30 09:41:12;;;;;;;;;4.50;2.50;;;;;29.55;39.05;103125.13;5052368;28;45483;-70
2022/01/30 09:43:38;;;;;;;;;6.75;4.50;;;;;30.03;37.23;103110.09;5052238;28;45694;-70
2022/01/30 09:46:04;;;;;;;;;7.25;4.00;;;;;30.22;37.53;103117.47;5050155;28;45446;-70
2022/01/30 09:48:36;;;;;;;;;7.00;6.25;;;;;30.52;35.97;103111.16;5052403;28;45436;-69
2022/01/30 09:51:04;;;;;;;;;5.50;3.00;;;;;30.97;35.30;103119.66;5049696;28;45388;-70
2022/01/30 09:53:31;;;;;;;;;6.25;5.00;;;;;31.19;36.64;103122.09;5049885;28;48079;-70
2022/01/30 09:55:56;;;;;;;;;6.00;4.00;;;;;31.44;34.11;103111.66;5053731;28;45596;-70
2022/01/30 09:58:22;;;;;;;;;4.25;4.00;;;;;31.69;33.39;103115.63;5052456;28;48620;-70
2022/01/30 10:00:47;;;;;;;;;6.00;3.25;;;;;31.91;33.70;103112.56;5066400;27;45550;-70
2022/01/30 10:03:23;;;;;;;;;8.50;5.00;;;;;32.04;33.03;103114.06;5054995;28;46304;-70
2022/01/30 10:06:24;;;;;;;;;4.00;4.00;;;;;31.89;32.29;103111.81;5045622;28;45862;-70
2022/01/30 10:08:54;;;;;;;;;5.50;2.75;;;;;31.72;32.38;103120.75;5026217;28;46591;-70
2022/01/30 10:11:32;;;;;;;;;5.75;4.50;;;;;31.91;31.68;103115.28;5023200;28;45460;-70
2022/01/30 10:14:03;;;;;;;;;3.00;3.00;;;;;32.20;31.52;103117.84;5022421;28;47524;-72
2022/01/30 10:16:42;;;;;;;;;5.50;2.00;;;;;32.41;32.08;103112.19;5007823;28;45617;-71
2022/01/30 10:19:13;;;;;;;;;4.50;2.00;;;;;32.25;29.78;103119.25;5032455;28;45652;-71
2022/01/30 10:21:39;;;;;;;;;5.25;3.00;;;;;32.14;31.00;103112.16;5029960;28;45437;-71
2022/01/30 10:24:22;;;;;;;;;4.00;4.00;;;;;31.91;31.06;103112.56;5009736;28;46393;-70
2022/01/30 10:26:48;;;;;;;;;6.00;4.25;;;;;31.60;30.46;103111.06;5030393;28;45465;-71
2022/01/30 10:29:27;;;;;;;;;4.50;3.75;;;;;30.81;30.29;103111.22;5033825;28;45485;-71
2022/01/30 10:32:04;;;;;;;;;5.25;4.00;;;;;29.95;31.15;103116.19;5031105;28;45474;-71
2022/01/30 10:34:30;;;;;;;;;8.00;4.25;;;;;28.70;30.44;103118.78;5026429;28;45618;-71
2022/01/30 10:37:19;;;;;;;;;5.25;4.00;;;;;26.94;32.09;103121.81;5033468;28;45800;-70
2022/01/30 10:40:06;;;;;;;;;6.25;3.75;;;;;25.19;32.94;103115.31;5017659;28;45526;-71
2022/01/30 10:42:35;;;;;;;;;4.00;3.00;;;;;23.95;34.15;103117.88;5033045;28;45769;-71
2022/01/30 10:45:02;;;;;;;;;63.25;47.00;;;;;23.31;34.95;103123.59;5047569;28;46240;-71
2022/01/30 10:47:30;;;;;;;;;5.75;4.00;;;;;22.89;35.54;103117.94;5052314;28;45449;-71
2022/01/30 10:49:57;;;;;;;;;6.25;5.00;;;;;22.22;36.31;103107.44;5049777;28;45478;-71
2022/01/30 10:52:23;;;;;;;;;3.75;3.50;;;;;21.70;36.32;103104.84;5052836;28;45501;-71
2022/01/30 10:54:50;;;;;;;;;4.00;3.25;;;;;21.38;37.63;103117.19;5055581;28;46238;-71
2022/01/30 10:57:15;;;;;;;;;3.75;3.75;;;;;21.14;37.64;103111.22;5054185;28;45647;-70
2022/01/30 10:59:43;;;;;;;;;4.25;4.25;;;;;20.98;37.35;103114.66;5052469;28;45686;-70
2022/01/30 11:02:14;;;;;;;;;6.00;6.00;;;;;20.84;37.70;103122.50;5053773;28;45276;-71
2022/01/30 11:04:39;;;;;;;;;7.25;5.00;;;;;20.58;38.04;103111.28;5048939;28;45632;-71
2022/01/30 11:07:05;;;;;;;;;10.00;5.25;;;;;20.33;38.29;103100.84;5052162;28;45466;-71
2022/01/30 11:09:44;;;;;;;;;6.50;3.50;;;;;20.09;38.58;103109.97;5047422;28;45343;-70
2022/01/30 11:12:15;;;;;;;;;5.25;5.25;;;;;20.06;39.18;103107.44;5045501;28;45368;-71
2022/01/30 11:17:15;;;;;;;;;6.25;3.50;;;;;19.89;39.16;103105.53;5051532;28;45591;-71
2022/01/30 11:19:43;;;;;;;;;6.00;3.75;;;;;19.71;39.52;103093.00;5052852;28;45475;-71
2022/01/30 11:22:10;;;;;;;;;3.25;3.25;;;;;19.50;39.53;103103.63;5070008;28;45562;-70
2022/01/30 11:24:47;;;;;;;;;10.75;4.25;;;;;19.16;39.58;103101.53;5057844;28;46043;-71
2022/01/30 11:27:17;;;;;;;;;7.25;5.00;;;;;18.91;40.23;103083.03;5054723;28;45633;-71
2022/01/30 11:29:43;;;;;;;;;9.75;4.75;;;;;18.52;40.41;103083.63;5054206;28;47137;-71
2022/01/30 11:32:10;;;;;;;;;5.50;4.00;;;;;18.09;40.65;103089.72;5054904;28;45360;-71
2022/01/30 11:34:37;;;;;;;;;6.75;6.00;;;;;17.34;41.45;103071.13;5043220;28;45308;-71
2022/01/30 11:37:04;;;;;;;;;5.50;5.50;;;;;16.99;41.77;103088.22;5054393;28;45363;-70
2022/01/30 11:39:29;;;;;;;;;4.50;3.75;;;;;16.98;41.83;103086.50;5056800;28;45354;-71
2022/01/30 11:42:09;;;;;;;;;4.00;4.00;;;;;16.91;42.11;103085.84;5054523;28;45361;-71
2022/01/30 11:44:35;;;;;;;;;4.50;4.50;;;;;16.50;42.52;103075.59;5054303;28;46171;-71
2022/01/30 11:47:04;;;;;;;;;8.50;4.50;;;;;16.07;43.05;103079.50;5054219;28;45202;-70
2022/01/30 11:50:05;;;;;;;;;4.00;3.00;;;;;15.95;43.70;103069.25;5053957;28;45478;-71
2022/01/30 11:52:53;;;;;;;;;8.00;5.50;;;;;16.17;43.53;103070.38;4983412;28;45497;-71
2022/01/30 11:55:36;;;;;;;;;7.25;6.25;;;;;16.29;44.04;103064.72;4972574;28;46440;-71
2022/01/30 11:58:02;;;;;;;;;7.50;5.75;;;;;16.20;43.33;103059.69;4975360;28;45374;-71
2022/01/30 12:00:38;;;;;;;;;7.50;5.00;;;;;16.38;44.07;103045.84;4974934;28;45500;-71
2022/01/30 12:03:22;;;;;;;;;9.75;5.75;;;;;16.69;44.14;103047.53;4958860;28;45596;-70
2022/01/30 12:05:48;;;;;;;;;8.50;5.00;;;;;16.98;44.39;103035.16;4975011;28;46591;-71
2022/01/30 12:08:45;;;;;;;;;7.50;6.00;;;;;17.13;43.80;103043.47;4974448;28;45473;-71
2022/01/30 12:11:35;;;;;;;;;5.00;5.00;;;;;16.97;43.97;103036.09;4975605;28;45794;-71
2022/01/30 12:14:06;;;;;;;;;5.50;5.00;;;;;16.84;43.22;103038.25;4975354;28;45505;-71
2022/01/30 12:16:55;;;;;;;;;11.75;5.75;;;;;16.64;44.05;103041.50;4975045;28;45509;-71
2022/01/30 12:19:39;;;;;;;;;6.25;5.25;;;;;16.37;44.23;103035.28;4974557;28;45501;-71
2022/01/30 12:22:16;;;;;;;;;9.50;6.50;;;;;16.41;44.85;103039.59;4974523;28;45557;-70
2022/01/30 12:24:43;;;;;;;;;6.50;6.50;;;;;16.65;44.61;103025.56;4973536;28;45512;-71
2022/01/30 12:27:09;;;;;;;;;10.25;8.00;;;;;16.79;44.26;103027.78;5036027;28;45479;-71
2022/01/30 12:29:44;;;;;;;;;4.75;4.75;;;;;16.72;44.36;103023.59;5056338;28;45479;-71
2022/01/30 12:32:25;;;;;;;;;8.50;5.00;;;;;16.43;44.61;103009.41;5056299;28;45465;-71